Berwick, North Dakota
Current Conditions -  °F | °C
As of 2:55 PM on Thursday 23 Oct 2014 (Local Time) from KRUG Reporting Station
Clear Clear  
Wind Chill: 66°   Ceiling: Unl
Heat Index: 66°   Visibility: 10mi
Dew Point: 36°   Wind: 12mph
Humidity: 32%   Direction: 230°SW
Pressure: 29.78"   Gusts: NA
Location:  48.4251°N, 100.424°W
Report Text: KRUG 231955Z AUTO 23010KT 10SM CLR 19/02 A2978 RMK AO2
Loading
Personal Weather Stations






























Interactive Weather Map
Tropical Storm Tracking
New forecast layout! Learn more

10-Day Weather Forecast

Advertisements
Track Severe Weather on mobile